createdAt,value
2023-03-31T00:00:42.833Z,91.46
2023-03-31T00:03:23.246Z,90.63
2023-03-31T00:06:00.113Z,91.53
2023-03-31T00:08:36.618Z,91.51
2023-03-31T00:11:13.055Z,91.70
2023-03-31T00:13:43.319Z,91.67
2023-03-31T00:16:13.618Z,91.55
2023-03-31T00:18:48.694Z,91.72
2023-03-31T00:21:41.907Z,91.92
2023-03-31T00:24:13.893Z,91.93
2023-03-31T00:26:44.516Z,91.97
2023-03-31T00:29:15.436Z,92.67
2023-03-31T00:31:45.677Z,92.38
2023-03-31T00:34:15.980Z,91.94
2023-03-31T00:36:48.860Z,91.93
2023-03-31T00:39:21.254Z,91.99
2023-03-31T00:41:51.810Z,92.51
2023-03-31T00:44:25.651Z,92.02
2023-03-31T00:46:55.770Z,91.61
2023-03-31T00:49:32.879Z,91.67
2023-03-31T00:52:11.565Z,92.13
2023-03-31T00:54:44.839Z,91.82
2023-03-31T00:57:16.427Z,92.09
2023-03-31T00:59:53.845Z,91.92
2023-03-31T01:02:28.282Z,92.31
2023-03-31T01:05:03.442Z,91.96
2023-03-31T01:07:48.957Z,91.78
2023-03-31T01:10:19.608Z,92.47
2023-03-31T01:12:55.212Z,92.17
2023-03-31T01:15:25.729Z,92.14
2023-03-31T01:17:58.849Z,91.91
2023-03-31T01:20:59.268Z,91.88
2023-03-31T01:23:47.647Z,92.06
2023-03-31T01:26:39.916Z,92.08
2023-03-31T01:29:17.995Z,92.22
2023-03-31T01:32:27.768Z,92.34
2023-03-31T01:35:22.392Z,92.89
2023-03-31T01:38:20.354Z,92.69
2023-03-31T01:41:00.189Z,92.44
2023-03-31T01:44:09.592Z,92.51
2023-03-31T01:47:12.440Z,92.70
2023-03-31T01:49:57.499Z,92.48
2023-03-31T01:52:48.704Z,93.19
2023-03-31T01:55:44.900Z,93.02
2023-03-31T01:58:27.096Z,93.22
2023-03-31T02:01:04.858Z,93.11
2023-03-31T02:03:42.786Z,93.54
2023-03-31T02:06:19.474Z,93.59
2023-03-31T02:09:13.699Z,93.20
2023-03-31T02:11:45.484Z,93.85
2023-03-31T02:14:20.788Z,94.34
2023-03-31T02:16:59.574Z,94.53
2023-03-31T02:19:37.025Z,93.71
2023-03-31T02:22:09.341Z,94.25
2023-03-31T02:24:42.611Z,94.24
2023-03-31T02:27:33.534Z,94.44
2023-03-31T02:30:05.365Z,94.00
2023-03-31T02:32:47.938Z,93.53
2023-03-31T02:35:21.677Z,94.44
2023-03-31T02:37:51.932Z,94.57
2023-03-31T02:40:28.792Z,94.44
2023-03-31T02:42:58.980Z,94.81
2023-03-31T02:45:47.222Z,95.14
2023-03-31T02:48:20.531Z,95.14
2023-03-31T02:51:11.030Z,95.03
2023-03-31T02:54:05.710Z,95.26
2023-03-31T02:57:03.460Z,95.30
2023-03-31T02:59:42.918Z,95.06
2023-03-31T03:02:28.691Z,95.66
2023-03-31T03:05:07.932Z,95.42
2023-03-31T03:07:49.277Z,95.26
2023-03-31T03:10:47.912Z,95.08
2023-03-31T03:13:37.424Z,95.75
2023-03-31T03:16:20.217Z,95.92
2023-03-31T03:19:04.615Z,95.89
2023-03-31T03:21:35.491Z,95.51
2023-03-31T03:24:05.974Z,96.03
2023-03-31T03:26:36.456Z,95.73
2023-03-31T03:29:06.700Z,95.83
2023-03-31T03:31:37.009Z,95.90
2023-03-31T03:34:08.220Z,96.84
2023-03-31T03:36:39.330Z,96.76
2023-03-31T03:39:09.962Z,96.78
2023-03-31T03:41:40.903Z,97.22
2023-03-31T03:44:10.989Z,97.04
2023-03-31T03:46:41.246Z,97.21
2023-03-31T03:49:11.557Z,96.73
2023-03-31T03:51:42.193Z,96.63
2023-03-31T03:54:12.363Z,96.52
2023-03-31T03:56:42.245Z,96.02
2023-03-31T03:59:13.811Z,96.01
2023-03-31T04:01:45.201Z,96.20
2023-03-31T04:04:14.851Z,95.88
2023-03-31T04:06:44.830Z,96.58
2023-03-31T04:09:14.940Z,96.14
2023-03-31T04:11:44.978Z,96.33
2023-03-31T04:14:15.176Z,96.31
2023-03-31T04:16:47.855Z,96.66
2023-03-31T04:19:18.866Z,96.85
2023-03-31T04:21:51.896Z,96.76
2023-03-31T04:24:22.913Z,97.25
2023-03-31T04:26:53.060Z,97.81
2023-03-31T04:29:23.813Z,97.05
2023-03-31T04:31:55.249Z,98.01
2023-03-31T04:34:28.025Z,97.68
2023-03-31T04:37:00.719Z,97.48
2023-03-31T04:39:32.081Z,97.22
2023-03-31T04:42:03.477Z,96.87
2023-03-31T04:44:34.041Z,97.22
2023-03-31T04:47:04.184Z,96.75
2023-03-31T04:49:34.930Z,97.01
2023-03-31T04:52:05.115Z,98.06
2023-03-31T04:54:35.289Z,98.24
2023-03-31T04:57:05.523Z,98.33
2023-03-31T04:59:36.089Z,98.62
2023-03-31T05:02:06.321Z,98.77
2023-03-31T05:04:37.172Z,98.78
2023-03-31T05:07:07.392Z,99.13
2023-03-31T05:09:37.607Z,99.21
2023-03-31T05:12:08.068Z,99.09
2023-03-31T05:14:38.821Z,99.20
2023-03-31T05:17:08.814Z,99.27
2023-03-31T05:19:38.850Z,99.42
2023-03-31T05:22:09.038Z,99.19
2023-03-31T05:24:38.846Z,98.67
2023-03-31T05:27:08.912Z,98.91
2023-03-31T05:29:38.559Z,98.44
2023-03-31T05:32:08.410Z,98.94
2023-03-31T05:34:38.824Z,98.93
2023-03-31T05:37:08.887Z,98.95
2023-03-31T05:39:39.001Z,99.27
2023-03-31T05:42:08.887Z,98.54
2023-03-31T05:44:39.136Z,98.94
2023-03-31T05:47:09.228Z,99.01
2023-03-31T05:49:39.885Z,98.05
2023-03-31T05:52:11.345Z,98.11
2023-03-31T05:54:42.182Z,98.31
2023-03-31T05:57:12.998Z,98.19
2023-03-31T05:59:44.159Z,97.94
2023-03-31T06:02:17.367Z,97.64
2023-03-31T06:04:47.874Z,97.84
2023-03-31T06:07:19.062Z,98.20
2023-03-31T06:09:49.300Z,97.84
2023-03-31T06:12:19.537Z,98.26
2023-03-31T06:14:49.670Z,98.38
2023-03-31T06:17:19.326Z,97.97
2023-03-31T06:19:49.102Z,98.11
2023-03-31T06:22:18.727Z,97.52
2023-03-31T06:24:48.491Z,97.97
2023-03-31T06:27:18.376Z,97.53
2023-03-31T06:29:48.449Z,98.17
2023-03-31T06:32:18.591Z,98.30
2023-03-31T06:34:48.349Z,97.83
2023-03-31T06:37:18.121Z,98.40
2023-03-31T06:39:47.859Z,97.94
2023-03-31T06:42:17.885Z,99.01
2023-03-31T06:44:48.856Z,99.04
2023-03-31T06:47:19.112Z,98.62
2023-03-31T06:49:49.607Z,98.47
2023-03-31T06:52:19.800Z,98.89
2023-03-31T06:54:49.661Z,99.09
2023-03-31T06:57:19.585Z,98.77
2023-03-31T06:59:49.509Z,98.71
2023-03-31T07:02:19.818Z,98.95
2023-03-31T07:04:50.068Z,98.60
2023-03-31T07:07:20.474Z,98.92
2023-03-31T07:09:50.664Z,98.85
2023-03-31T07:12:21.794Z,98.46
2023-03-31T07:14:51.851Z,99.18
2023-03-31T07:17:22.384Z,99.05
2023-03-31T07:19:52.513Z,98.98
2023-03-31T07:22:22.100Z,98.52
2023-03-31T07:24:51.954Z,99.34
2023-03-31T07:27:23.541Z,98.75
2023-03-31T07:29:54.980Z,99.07
2023-03-31T07:32:25.248Z,98.71
2023-03-31T07:34:57.058Z,99.47
2023-03-31T07:37:26.794Z,99.04
2023-03-31T07:39:56.724Z,99.91
2023-03-31T07:42:26.642Z,99.70
2023-03-31T07:44:56.810Z,99.27
2023-03-31T07:47:27.461Z,99.18
2023-03-31T07:49:57.722Z,99.37
2023-03-31T07:52:27.848Z,99.19
2023-03-31T07:54:57.702Z,98.67
2023-03-31T07:57:27.567Z,99.27
2023-03-31T07:59:57.624Z,98.78
2023-03-31T08:02:27.881Z,99.45
2023-03-31T08:04:58.438Z,99.99
2023-03-31T08:07:32.024Z,99.78
2023-03-31T08:10:04.598Z,99.64
2023-03-31T08:12:34.776Z,99.65
2023-03-31T08:15:04.606Z,99.17
2023-03-31T08:17:34.690Z,99.33
2023-03-31T08:20:08.297Z,99.62
2023-03-31T08:22:39.602Z,99.71
2023-03-31T08:25:10.820Z,99.60
2023-03-31T08:27:42.231Z,99.37
2023-03-31T08:30:13.551Z,99.53
2023-03-31T08:32:43.658Z,99.67
2023-03-31T08:35:13.746Z,99.73
2023-03-31T08:37:44.127Z,99.76
2023-03-31T08:40:21.796Z,99.76
2023-03-31T08:43:04.180Z,99.70
2023-03-31T08:45:41.454Z,99.54
2023-03-31T08:48:28.524Z,99.80
2023-03-31T08:51:08.209Z,99.64
2023-03-31T08:53:45.050Z,99.76
2023-03-31T08:56:20.161Z,99.66
2023-03-31T08:58:53.364Z,99.49
2023-03-31T09:01:52.282Z,99.83
2023-03-31T09:05:07.029Z,99.65
2023-03-31T09:07:55.682Z,99.76
2023-03-31T09:10:30.102Z,99.64
2023-03-31T09:13:12.400Z,99.60
2023-03-31T09:16:08.271Z,99.54
2023-03-31T09:18:41.822Z,99.56
2023-03-31T09:21:30.094Z,99.76
2023-03-31T09:24:24.939Z,99.53
2023-03-31T09:27:08.634Z,99.96
2023-03-31T09:29:47.034Z,99.99
2023-03-31T09:32:26.341Z,99.75
2023-03-31T09:35:26.537Z,99.90
2023-03-31T09:37:57.234Z,99.69
2023-03-31T09:40:29.750Z,99.92
2023-03-31T09:43:08.768Z,99.99
2023-03-31T09:45:39.032Z,99.65
2023-03-31T09:48:32.142Z,99.20
2023-03-31T09:51:06.152Z,99.27
2023-03-31T09:53:54.328Z,99.99
2023-03-31T09:56:45.252Z,99.99
2023-03-31T09:59:25.207Z,99.99
2023-03-31T10:02:00.403Z,99.99
2023-03-31T10:04:34.442Z,99.99
2023-03-31T10:07:07.170Z,99.99
2023-03-31T10:09:40.593Z,99.99
2023-03-31T10:12:25.848Z,99.99
2023-03-31T10:15:04.401Z,99.99
2023-03-31T10:17:47.137Z,99.99
2023-03-31T10:20:39.489Z,99.99
2023-03-31T10:23:18.718Z,99.99
2023-03-31T10:25:49.626Z,99.99
2023-03-31T10:28:22.339Z,99.99
2023-03-31T10:30:59.071Z,99.81
2023-03-31T10:33:32.980Z,98.90
2023-03-31T10:36:10.241Z,98.64
2023-03-31T10:38:46.247Z,98.27
2023-03-31T10:41:22.821Z,98.31
2023-03-31T10:43:58.096Z,98.28
2023-03-31T10:46:51.473Z,99.31
2023-03-31T10:49:24.626Z,99.09
2023-03-31T10:52:00.083Z,98.63
2023-03-31T10:54:30.285Z,97.82
2023-03-31T10:57:02.708Z,97.38
2023-03-31T10:59:53.104Z,97.04
2023-03-31T11:02:47.872Z,97.20
2023-03-31T11:05:32.828Z,97.51
2023-03-31T11:08:29.398Z,97.95
2023-03-31T11:11:10.525Z,97.70
2023-03-31T11:14:17.175Z,97.19
2023-03-31T11:17:23.827Z,97.55
2023-03-31T11:20:24.772Z,97.64
2023-03-31T11:23:19.172Z,97.67
2023-03-31T11:26:03.409Z,97.62
2023-03-31T11:28:42.050Z,97.17
2023-03-31T11:31:32.810Z,97.73
2023-03-31T11:34:21.663Z,97.72
2023-03-31T11:36:54.455Z,97.33
2023-03-31T11:39:51.020Z,97.14
2023-03-31T11:42:41.657Z,97.52
2023-03-31T11:45:19.471Z,97.07
2023-03-31T11:47:54.285Z,96.52
2023-03-31T11:50:29.095Z,96.66
2023-03-31T11:53:09.285Z,96.85
2023-03-31T11:55:40.993Z,96.61
2023-03-31T11:58:25.934Z,96.28
2023-03-31T12:01:08.585Z,96.36
2023-03-31T12:03:55.917Z,95.75
2023-03-31T12:06:31.834Z,94.79
2023-03-31T12:09:09.945Z,94.65
2023-03-31T12:12:12.432Z,94.58
2023-03-31T12:15:08.402Z,94.42
2023-03-31T12:17:43.079Z,93.69
2023-03-31T12:20:42.731Z,93.13
2023-03-31T12:23:30.917Z,93.51
2023-03-31T12:26:25.236Z,93.30
2023-03-31T12:29:04.580Z,92.49
2023-03-31T12:31:36.898Z,92.39
2023-03-31T12:34:12.022Z,92.50
2023-03-31T12:36:57.138Z,92.49
2023-03-31T12:39:35.760Z,91.61
2023-03-31T12:42:34.436Z,91.45
2023-03-31T12:45:30.146Z,91.17
2023-03-31T12:48:40.093Z,90.83
2023-03-31T12:51:25.270Z,90.55
2023-03-31T12:54:07.368Z,90.14
2023-03-31T12:57:02.047Z,90.13
2023-03-31T12:59:40.219Z,89.64
2023-03-31T13:02:17.044Z,89.03
2023-03-31T13:04:46.865Z,89.23
2023-03-31T13:07:28.217Z,88.53
2023-03-31T13:10:22.882Z,87.88
2023-03-31T13:13:06.684Z,87.89
2023-03-31T13:15:37.532Z,86.81
2023-03-31T13:18:09.858Z,86.51
2023-03-31T13:20:42.810Z,86.89
2023-03-31T13:23:30.005Z,86.09
2023-03-31T13:26:01.317Z,86.58
2023-03-31T13:28:43.637Z,85.37
2023-03-31T13:31:15.404Z,84.42
2023-03-31T13:34:00.398Z,86.66
2023-03-31T13:36:36.517Z,84.55
2023-03-31T13:39:36.952Z,84.14
2023-03-31T13:42:28.623Z,82.88
2023-03-31T13:45:33.676Z,84.11
2023-03-31T13:48:10.360Z,83.53
2023-03-31T13:50:59.014Z,82.91
2023-03-31T13:53:47.237Z,82.78
2023-03-31T13:56:41.575Z,82.45
2023-03-31T13:59:31.461Z,81.56
2023-03-31T14:02:23.552Z,81.77
2023-03-31T14:05:02.779Z,79.80
2023-03-31T14:07:33.031Z,80.13
2023-03-31T14:10:04.163Z,79.20
2023-03-31T14:12:38.619Z,78.57
2023-03-31T14:15:19.793Z,78.62
2023-03-31T14:17:50.269Z,77.57
2023-03-31T14:20:29.621Z,75.12
2023-03-31T14:23:05.856Z,75.86
2023-03-31T14:25:38.988Z,75.42
2023-03-31T14:28:20.350Z,75.19
2023-03-31T14:31:12.146Z,72.82
2023-03-31T14:34:06.902Z,72.84
2023-03-31T14:36:47.982Z,72.66
2023-03-31T14:39:24.461Z,71.72
2023-03-31T14:41:56.260Z,72.07
2023-03-31T14:44:28.156Z,70.24
2023-03-31T14:47:23.735Z,70.50
2023-03-31T14:50:17.871Z,71.19
2023-03-31T14:52:54.745Z,71.71
2023-03-31T14:55:39.325Z,69.83
2023-03-31T14:58:29.132Z,69.82
2023-03-31T15:01:00.255Z,70.19
2023-03-31T15:03:31.473Z,69.45
2023-03-31T15:06:04.009Z,69.87
2023-03-31T15:08:36.470Z,69.49
2023-03-31T15:11:13.199Z,69.30
2023-03-31T15:14:04.563Z,68.64
2023-03-31T15:16:46.545Z,68.19
2023-03-31T15:19:26.057Z,66.89
2023-03-31T15:22:18.600Z,68.59
2023-03-31T15:24:48.838Z,68.03
2023-03-31T15:27:45.612Z,68.63
2023-03-31T15:30:23.005Z,68.56
2023-03-31T15:32:58.816Z,69.32
2023-03-31T15:35:36.852Z,67.30
2023-03-31T15:38:08.509Z,66.65
2023-03-31T15:40:42.034Z,67.77
2023-03-31T15:43:47.704Z,68.35
2023-03-31T15:46:42.478Z,68.14
2023-03-31T15:49:26.940Z,65.36
2023-03-31T15:52:02.503Z,66.00
2023-03-31T15:54:35.640Z,66.89
2023-03-31T15:57:08.100Z,65.83
2023-03-31T16:02:36.192Z,64.83
2023-03-31T16:05:10.917Z,66.83
2023-03-31T16:07:50.768Z,64.60
2023-03-31T16:10:24.383Z,63.07
2023-03-31T16:12:59.873Z,64.14
2023-03-31T16:15:39.441Z,65.40
2023-03-31T16:18:14.297Z,62.08
2023-03-31T16:20:51.807Z,61.44
2023-03-31T16:23:27.269Z,61.37
2023-03-31T16:26:02.937Z,61.81
2023-03-31T16:28:38.896Z,61.59
2023-03-31T16:31:30.997Z,62.49
2023-03-31T16:34:01.598Z,60.89
2023-03-31T16:36:32.417Z,61.79
2023-03-31T16:39:06.168Z,62.68
2023-03-31T16:41:38.115Z,62.02
2023-03-31T16:44:08.307Z,60.56
2023-03-31T16:46:38.495Z,60.78
2023-03-31T16:49:08.604Z,59.64
2023-03-31T16:51:39.499Z,60.47
2023-03-31T16:54:09.498Z,60.56
2023-03-31T16:56:39.710Z,61.53
2023-03-31T16:59:10.105Z,59.96
2023-03-31T17:01:40.318Z,58.79
2023-03-31T17:04:10.653Z,59.72
2023-03-31T17:06:40.819Z,60.73
2023-03-31T17:09:10.732Z,60.76
2023-03-31T17:11:41.030Z,59.96
2023-03-31T17:14:12.121Z,60.06
2023-03-31T17:16:48.505Z,58.86
2023-03-31T17:19:19.191Z,58.07
2023-03-31T17:21:49.321Z,56.25
2023-03-31T17:24:19.826Z,58.22
2023-03-31T17:26:50.294Z,55.41
2023-03-31T17:29:20.458Z,57.58
2023-03-31T17:31:50.975Z,56.80
2023-03-31T17:34:21.399Z,57.37
2023-03-31T17:36:52.618Z,56.91
2023-03-31T17:39:22.749Z,57.81
2023-03-31T17:41:53.069Z,58.06
2023-03-31T17:44:23.303Z,58.05
2023-03-31T17:46:53.679Z,58.67
2023-03-31T17:49:24.834Z,55.45
2023-03-31T17:51:55.110Z,54.01
2023-03-31T17:54:25.291Z,53.62
2023-03-31T17:56:55.726Z,52.23
2023-03-31T17:59:25.916Z,53.06
2023-03-31T18:01:56.420Z,54.01
2023-03-31T18:04:26.899Z,52.38
2023-03-31T18:06:58.557Z,51.03
2023-03-31T18:09:29.346Z,51.17
2023-03-31T18:11:59.952Z,52.29
2023-03-31T18:14:30.212Z,57.52
2023-03-31T18:17:00.387Z,61.52
2023-03-31T18:19:31.116Z,62.92
2023-03-31T18:22:01.483Z,62.18
2023-03-31T18:24:33.108Z,59.82
2023-03-31T18:27:03.300Z,60.59
2023-03-31T18:29:33.516Z,61.30
2023-03-31T18:32:04.091Z,59.56
2023-03-31T18:34:34.862Z,57.24
2023-03-31T18:37:06.649Z,59.51
2023-03-31T18:39:37.061Z,55.19
2023-03-31T18:42:07.433Z,59.45
2023-03-31T18:44:37.671Z,63.78
2023-03-31T18:47:07.967Z,64.08
2023-03-31T18:49:38.550Z,64.59
2023-03-31T18:52:08.661Z,65.07
2023-03-31T18:54:38.522Z,64.18
2023-03-31T18:57:08.810Z,63.11
2023-03-31T18:59:38.930Z,62.86
2023-03-31T19:02:09.721Z,63.81
2023-03-31T19:04:39.940Z,65.49
2023-03-31T19:07:10.138Z,66.64
2023-03-31T19:09:40.375Z,67.25
2023-03-31T19:12:10.506Z,66.83
2023-03-31T19:14:42.410Z,66.81
2023-03-31T19:17:13.136Z,67.37
2023-03-31T19:19:43.363Z,67.22
2023-03-31T19:22:13.607Z,67.99
2023-03-31T19:24:44.167Z,68.72
2023-03-31T19:27:14.865Z,69.47
2023-03-31T19:29:45.074Z,69.32
2023-03-31T19:32:15.713Z,69.61
2023-03-31T19:34:47.779Z,69.38
2023-03-31T19:37:17.938Z,68.60
2023-03-31T19:39:48.014Z,69.47
2023-03-31T19:42:19.023Z,69.41
2023-03-31T19:44:49.154Z,70.07
2023-03-31T19:47:19.125Z,70.46
2023-03-31T19:49:49.311Z,69.86
2023-03-31T19:52:19.493Z,70.48
2023-03-31T19:54:49.694Z,70.73
2023-03-31T19:57:19.858Z,70.98
2023-03-31T19:59:49.975Z,70.97
2023-03-31T20:02:20.190Z,71.16
2023-03-31T20:04:50.446Z,72.02
2023-03-31T20:07:20.975Z,71.33
2023-03-31T20:09:51.099Z,72.02
2023-03-31T20:12:21.363Z,71.52
2023-03-31T20:14:51.455Z,72.58
2023-03-31T20:17:22.061Z,72.10
2023-03-31T20:19:52.280Z,72.02
2023-03-31T20:22:22.803Z,72.01
2023-03-31T20:24:53.044Z,72.50
2023-03-31T20:27:27.448Z,73.08
2023-03-31T20:29:57.671Z,73.09
2023-03-31T20:32:28.122Z,72.73
2023-03-31T20:34:59.188Z,72.59
2023-03-31T20:37:29.762Z,72.90
2023-03-31T20:40:00.219Z,73.28
2023-03-31T20:42:33.342Z,72.55
2023-03-31T20:45:03.464Z,72.84
2023-03-31T20:47:35.984Z,72.78
2023-03-31T20:50:06.925Z,72.12
2023-03-31T20:52:37.857Z,72.22
2023-03-31T20:55:08.703Z,72.23
2023-03-31T20:57:38.804Z,72.37
2023-03-31T21:00:08.571Z,72.53
2023-03-31T21:02:39.646Z,72.62
2023-03-31T21:05:10.115Z,72.40
2023-03-31T21:07:40.308Z,72.63
2023-03-31T21:10:10.748Z,73.82
2023-03-31T21:12:42.364Z,73.53
2023-03-31T21:15:12.978Z,74.08
2023-03-31T21:17:43.156Z,74.08
2023-03-31T21:20:13.433Z,73.70
2023-03-31T21:22:43.577Z,74.20
2023-03-31T21:25:16.495Z,74.13
2023-03-31T21:27:46.811Z,74.74
2023-03-31T21:30:17.272Z,75.01
2023-03-31T21:32:48.264Z,74.87
2023-03-31T21:35:19.554Z,74.69
2023-03-31T21:37:50.406Z,75.13
2023-03-31T21:40:20.618Z,74.99
2023-03-31T21:42:50.922Z,75.12
2023-03-31T21:45:21.075Z,75.13
2023-03-31T21:47:50.816Z,75.05
2023-03-31T21:50:20.679Z,75.03
2023-03-31T21:52:50.088Z,74.82
2023-03-31T21:55:32.389Z,75.14
2023-03-31T21:58:04.886Z,75.27
2023-03-31T22:00:37.297Z,75.16
2023-03-31T22:03:25.720Z,75.79
2023-03-31T22:05:58.076Z,75.62
2023-03-31T22:08:30.122Z,76.07
2023-03-31T22:11:01.416Z,76.17
2023-03-31T22:13:31.863Z,75.92
2023-03-31T22:16:03.230Z,75.92
2023-03-31T22:18:38.118Z,76.39
2023-03-31T22:21:16.576Z,76.24
2023-03-31T22:23:46.961Z,76.87
2023-03-31T22:26:17.305Z,76.46
2023-03-31T22:28:47.473Z,76.96
2023-03-31T22:31:17.917Z,77.02
2023-03-31T22:34:07.656Z,76.99
2023-03-31T22:36:38.308Z,79.77
2023-03-31T22:39:08.792Z,81.51
2023-03-31T22:41:38.932Z,94.56
2023-03-31T22:44:09.941Z,99.99
2023-03-31T22:46:40.883Z,99.99
2023-03-31T22:49:11.686Z,99.99
2023-03-31T22:51:42.948Z,99.99
2023-03-31T22:54:24.135Z,99.99
2023-03-31T22:57:14.550Z,99.99
2023-03-31T22:59:44.919Z,99.99
2023-03-31T23:02:15.232Z,99.99
2023-03-31T23:05:15.726Z,99.99
2023-03-31T23:07:45.970Z,99.99
2023-03-31T23:10:16.093Z,99.99
2023-03-31T23:12:46.330Z,99.99
2023-03-31T23:15:16.186Z,99.99
2023-03-31T23:17:46.432Z,99.99
2023-03-31T23:20:17.400Z,99.99
2023-03-31T23:22:47.549Z,99.99
2023-03-31T23:25:17.740Z,99.99
2023-03-31T23:27:49.017Z,99.99
2023-03-31T23:30:38.745Z,99.99
2023-03-31T23:33:08.428Z,99.99
2023-03-31T23:35:39.075Z,99.99
2023-03-31T23:38:09.646Z,99.99
2023-03-31T23:40:40.911Z,99.99
2023-03-31T23:43:11.103Z,99.99
2023-03-31T23:45:40.852Z,98.70
2023-03-31T23:48:11.198Z,99.87
2023-03-31T23:50:41.726Z,99.59
2023-03-31T23:53:12.399Z,99.26
2023-03-31T23:55:42.667Z,99.99
2023-03-31T23:58:12.916Z,99.99
